createdAt,value
2016-05-07T00:00:16.043Z,1004.3
2016-05-07T00:01:16.046Z,1004.34
2016-05-07T00:02:16.033Z,1004.34
2016-05-07T00:03:16.020Z,1004.31
2016-05-07T00:04:16.007Z,1004.31
2016-05-07T00:05:15.994Z,1004.31
2016-05-07T00:06:15.981Z,1004.29
2016-05-07T00:07:15.968Z,1004.28
2016-05-07T00:08:15.956Z,1004.27
2016-05-07T00:09:15.942Z,1004.32
2016-05-07T00:10:15.930Z,1004.28
2016-05-07T00:11:15.932Z,1004.26
2016-05-07T00:12:15.904Z,1004.25
2016-05-07T00:13:15.906Z,1004.29
2016-05-07T00:14:15.893Z,1004.28
2016-05-07T00:15:15.881Z,1004.27
2016-05-07T00:16:15.867Z,1004.26
2016-05-07T00:17:15.854Z,1004.25
2016-05-07T00:18:15.841Z,1004.29
2016-05-07T00:19:15.844Z,1004.27
2016-05-07T00:20:15.832Z,1004.24
2016-05-07T00:21:15.819Z,1004.23
2016-05-07T00:22:15.805Z,1004.25
2016-05-07T00:23:15.824Z,1004.26
2016-05-07T00:24:15.779Z,1004.24
2016-05-07T00:25:15.766Z,1004.25
2016-05-07T00:26:15.754Z,1004.26
2016-05-07T00:27:15.741Z,1004.26
2016-05-07T00:28:15.728Z,1004.24
2016-05-07T00:29:15.715Z,1004.25
2016-05-07T00:30:15.717Z,1004.24
2016-05-07T00:31:15.705Z,1004.23
2016-05-07T00:32:15.692Z,1004.24
2016-05-07T00:33:15.679Z,1004.2
2016-05-07T00:34:15.869Z,1004.21
2016-05-07T00:35:15.653Z,1004.18
2016-05-07T00:36:15.640Z,1004.16
2016-05-07T00:37:15.627Z,1004.17
2016-05-07T00:38:15.615Z,1004.13
2016-05-07T00:39:15.601Z,1004.15
2016-05-07T00:40:15.589Z,1004.11
2016-05-07T00:41:15.591Z,1004.1
2016-05-07T00:42:15.578Z,1004.11
2016-05-07T00:43:15.564Z,1004.14
2016-05-07T00:44:15.552Z,1004.12
2016-05-07T00:45:15.539Z,1004.12
2016-05-07T00:46:15.527Z,1004.14
2016-05-07T00:47:15.513Z,1004.13
2016-05-07T00:48:15.500Z,1004.12
2016-05-07T00:49:15.488Z,1004.13
2016-05-07T00:50:15.474Z,1004.15
2016-05-07T00:51:15.477Z,1004.14
2016-05-07T00:52:15.464Z,1004.13
2016-05-07T00:53:15.451Z,1004.1
2016-05-07T00:54:15.438Z,1004.07
2016-05-07T00:55:15.426Z,1004.09
2016-05-07T00:56:15.413Z,1004.14
2016-05-07T00:57:15.400Z,1004.12
2016-05-07T00:58:15.386Z,1004.1
2016-05-07T00:59:15.374Z,1004.09
2016-05-07T01:00:15.360Z,1004.09
2016-05-07T01:01:15.348Z,1004.1
2016-05-07T01:02:15.350Z,1004.06
2016-05-07T01:03:15.337Z,1004.07
2016-05-07T01:04:15.325Z,1004.06
2016-05-07T01:05:15.296Z,1004.04
2016-05-07T01:06:15.299Z,1004.06
2016-05-07T01:07:15.286Z,1004.02
2016-05-07T01:08:15.273Z,1004.04
2016-05-07T01:09:15.259Z,1004.02
2016-05-07T01:10:15.262Z,1004.02
2016-05-07T01:11:15.234Z,1004.05
2016-05-07T01:12:15.362Z,1004.04
2016-05-07T01:13:15.208Z,1004.07
2016-05-07T01:14:15.195Z,1004.04
2016-05-07T01:15:15.183Z,1004.06
2016-05-07T01:16:15.185Z,1004.06
2016-05-07T01:17:15.172Z,1004.06
2016-05-07T01:18:15.144Z,1004.03
2016-05-07T01:19:15.146Z,1004.09
2016-05-07T01:20:15.133Z,1004.02
2016-05-07T01:21:15.120Z,1004.06
2016-05-07T01:22:15.108Z,1004.04
2016-05-07T01:23:15.094Z,1004.06
2016-05-07T01:24:15.082Z,1004.07
2016-05-07T01:25:15.068Z,1004.08
2016-05-07T01:26:15.056Z,1004.06
2016-05-07T01:27:15.042Z,1004.06
2016-05-07T01:28:15.030Z,1004.09
2016-05-07T01:29:15.018Z,1004.05
2016-05-07T01:30:15.004Z,1004.07
2016-05-07T01:31:14.990Z,1004.05
2016-05-07T01:32:14.979Z,1004.06
2016-05-07T01:33:14.965Z,1004.03
2016-05-07T01:34:14.952Z,1004.02
2016-05-07T01:35:14.955Z,1004.02
2016-05-07T01:36:14.942Z,1004.03
2016-05-07T01:37:14.929Z,1004
2016-05-07T01:38:14.916Z,1004.03
2016-05-07T01:39:14.903Z,1004.03
2016-05-07T01:40:14.890Z,1004.03
2016-05-07T01:41:14.868Z,1004
2016-05-07T01:42:14.861Z,1003.99
2016-05-07T01:43:14.848Z,1003.98
2016-05-07T01:44:15.457Z,1003.97
2016-05-07T01:45:14.819Z,1003.98
2016-05-07T01:46:14.821Z,1003.97
2016-05-07T01:47:14.809Z,1003.96
2016-05-07T01:48:14.796Z,1003.94
2016-05-07T01:49:14.782Z,1003.93
2016-05-07T01:50:14.769Z,1003.96
2016-05-07T01:51:14.757Z,1003.94
2016-05-07T01:52:14.744Z,1003.92
2016-05-07T01:53:14.730Z,1003.91
2016-05-07T01:54:14.718Z,1003.92
2016-05-07T01:55:14.705Z,1003.9
2016-05-07T01:56:14.692Z,1003.91
2016-05-07T01:57:15.023Z,1003.9
2016-05-07T01:58:14.681Z,1003.91
2016-05-07T01:59:14.653Z,1003.9
2016-05-07T02:00:14.641Z,1003.87
2016-05-07T02:01:14.627Z,1003.87
2016-05-07T02:02:14.614Z,1003.87
2016-05-07T02:03:14.602Z,1003.9
2016-05-07T02:04:14.588Z,1003.88
2016-05-07T02:05:14.575Z,1003.92
2016-05-07T02:06:14.563Z,1003.88
2016-05-07T02:07:14.566Z,1003.89
2016-05-07T02:08:14.552Z,1003.9
2016-05-07T02:09:14.540Z,1003.9
2016-05-07T02:10:14.526Z,1003.89
2016-05-07T02:11:14.498Z,1003.92
2016-05-07T02:12:14.501Z,1003.93
2016-05-07T02:13:14.488Z,1003.94
2016-05-07T02:14:14.474Z,1004.01
2016-05-07T02:15:14.462Z,1004.02
2016-05-07T02:16:14.448Z,1004.04
2016-05-07T02:17:14.437Z,1003.99
2016-05-07T02:18:14.423Z,1004.01
2016-05-07T02:19:14.410Z,1003.98
2016-05-07T02:20:14.397Z,1003.99
2016-05-07T02:21:14.384Z,1003.95
2016-05-07T02:22:14.370Z,1003.95
2016-05-07T02:23:14.374Z,1003.97
2016-05-07T02:24:14.348Z,1003.96
2016-05-07T02:25:14.335Z,1003.92
2016-05-07T02:26:14.323Z,1003.95
2016-05-07T02:27:14.778Z,1003.92
2016-05-07T02:28:14.297Z,1003.93
2016-05-07T02:29:14.284Z,1003.94
2016-05-07T02:30:14.271Z,1003.94
2016-05-07T02:31:14.258Z,1003.93
2016-05-07T02:32:14.244Z,1003.97
2016-05-07T02:33:14.231Z,1003.92
2016-05-07T02:34:14.423Z,1003.93
2016-05-07T02:35:14.206Z,1003.9
2016-05-07T02:36:14.194Z,1003.86
2016-05-07T02:37:14.180Z,1003.92
2016-05-07T02:38:14.166Z,1003.87
2016-05-07T02:39:14.170Z,1003.88
2016-05-07T02:40:14.158Z,1003.9
2016-05-07T02:41:14.144Z,1003.85
2016-05-07T02:42:14.116Z,1003.83
2016-05-07T02:43:14.118Z,1003.85
2016-05-07T02:44:14.105Z,1003.84
2016-05-07T02:45:14.093Z,1003.82
2016-05-07T02:46:14.080Z,1003.82
2016-05-07T02:47:14.066Z,1003.85
2016-05-07T02:48:14.054Z,1003.82
2016-05-07T02:49:14.040Z,1003.78
2016-05-07T02:50:14.027Z,1003.8
2016-05-07T02:51:14.015Z,1003.79
2016-05-07T02:52:14.002Z,1003.78
2016-05-07T02:53:13.989Z,1003.8
2016-05-07T02:54:13.976Z,1003.82
2016-05-07T02:55:13.963Z,1003.83
2016-05-07T02:56:13.950Z,1003.76
2016-05-07T02:57:13.937Z,1003.76
2016-05-07T02:58:13.940Z,1003.79
2016-05-07T02:59:13.911Z,1003.76
2016-05-07T03:00:13.898Z,1003.79
2016-05-07T03:01:13.886Z,1003.77
2016-05-07T03:02:13.872Z,1003.74
2016-05-07T03:03:13.859Z,1003.76
2016-05-07T03:04:13.847Z,1003.78
2016-05-07T03:05:13.834Z,1003.74
2016-05-07T03:06:13.820Z,1003.73
2016-05-07T03:07:13.808Z,1003.75
2016-05-07T03:08:13.794Z,1003.75
2016-05-07T03:09:13.782Z,1003.76
2016-05-07T03:10:13.769Z,1003.75
2016-05-07T03:11:13.756Z,1003.78
2016-05-07T03:12:13.743Z,1003.75
2016-05-07T03:13:13.746Z,1003.77
2016-05-07T03:14:13.732Z,1003.75
2016-05-07T03:15:13.705Z,1003.74
2016-05-07T03:16:13.691Z,1003.73
2016-05-07T03:17:13.679Z,1003.72
2016-05-07T03:18:13.665Z,1003.76
2016-05-07T03:19:13.652Z,1003.74
2016-05-07T03:20:13.639Z,1003.75
2016-05-07T03:21:13.627Z,1003.78
2016-05-07T03:22:13.613Z,1003.76
2016-05-07T03:23:13.601Z,1003.76
2016-05-07T03:24:13.587Z,1003.78
2016-05-07T03:25:13.576Z,1003.81
2016-05-07T03:26:13.562Z,1003.83
2016-05-07T03:27:13.909Z,1003.78
2016-05-07T03:28:13.536Z,1003.8
2016-05-07T03:29:13.523Z,1003.76
2016-05-07T03:30:13.509Z,1003.74
2016-05-07T03:31:13.498Z,1003.74
2016-05-07T03:32:13.484Z,1003.72
2016-05-07T03:33:13.472Z,1003.76
2016-05-07T03:34:13.458Z,1003.73
2016-05-07T03:35:13.446Z,1003.73
2016-05-07T03:36:13.433Z,1003.75
2016-05-07T03:37:13.420Z,1003.76
2016-05-07T03:38:13.406Z,1003.73
2016-05-07T03:39:13.394Z,1003.74
2016-05-07T03:40:13.380Z,1003.74
2016-05-07T03:41:13.369Z,1003.74
2016-05-07T03:42:13.355Z,1003.77
2016-05-07T03:43:13.341Z,1003.75
2016-05-07T03:44:13.329Z,1003.73
2016-05-07T03:45:13.316Z,1003.72
2016-05-07T03:46:13.303Z,1003.71
2016-05-07T03:47:13.291Z,1003.73
2016-05-07T03:48:13.277Z,1003.73
2016-05-07T03:49:13.265Z,1003.73
2016-05-07T03:50:13.252Z,1003.74
2016-05-07T03:51:13.238Z,1003.71
2016-05-07T03:52:13.226Z,1003.71
2016-05-07T03:53:13.212Z,1003.71
2016-05-07T03:54:13.199Z,1003.74
2016-05-07T03:55:13.187Z,1003.73
2016-05-07T03:56:13.173Z,1003.74
2016-05-07T03:57:13.162Z,1003.79
2016-05-07T03:58:13.148Z,1003.83
2016-05-07T03:59:13.135Z,1003.79
2016-05-07T04:00:13.122Z,1003.84
2016-05-07T04:01:13.109Z,1003.86
2016-05-07T04:02:13.096Z,1003.83
2016-05-07T04:03:13.083Z,1003.82
2016-05-07T04:04:13.070Z,1003.85
2016-05-07T04:05:13.058Z,1003.83
2016-05-07T04:06:13.045Z,1003.82
2016-05-07T04:07:13.031Z,1003.86
2016-05-07T04:08:13.019Z,1003.84
2016-05-07T04:09:13.006Z,1003.87
2016-05-07T04:10:12.992Z,1003.83
2016-05-07T04:11:12.980Z,1003.82
2016-05-07T04:12:13.092Z,1003.86
2016-05-07T04:13:12.954Z,1003.85
2016-05-07T04:14:12.941Z,1003.84
2016-05-07T04:15:12.928Z,1003.85
2016-05-07T04:16:12.915Z,1003.86
2016-05-07T04:17:12.902Z,1003.85
2016-05-07T04:18:12.889Z,1003.89
2016-05-07T04:19:12.877Z,1003.87
2016-05-07T04:20:12.863Z,1003.84
2016-05-07T04:21:12.851Z,1003.88
2016-05-07T04:22:12.837Z,1003.86
2016-05-07T04:23:12.840Z,1003.84
2016-05-07T04:24:12.812Z,1003.88
2016-05-07T04:25:12.815Z,1003.87
2016-05-07T04:26:12.801Z,1003.85
2016-05-07T04:27:12.976Z,1003.9
2016-05-07T04:28:12.760Z,1003.88
2016-05-07T04:29:12.762Z,1003.87
2016-05-07T04:30:12.734Z,1003.89
2016-05-07T04:31:12.721Z,1003.91
2016-05-07T04:32:12.708Z,1003.92
2016-05-07T04:33:12.695Z,1003.9
2016-05-07T04:34:12.886Z,1003.89
2016-05-07T04:35:12.669Z,1003.9
2016-05-07T04:36:12.657Z,1003.83
2016-05-07T04:37:12.644Z,1003.88
2016-05-07T04:38:12.630Z,1003.87
2016-05-07T04:39:12.634Z,1003.87
2016-05-07T04:40:12.605Z,1003.86
2016-05-07T04:41:12.591Z,1003.88
2016-05-07T04:42:12.578Z,1003.86
2016-05-07T04:43:12.567Z,1003.88
2016-05-07T04:44:12.553Z,1003.87
2016-05-07T04:45:12.540Z,1003.85
2016-05-07T04:46:12.527Z,1003.86
2016-05-07T04:47:12.514Z,1003.88
2016-05-07T04:48:12.502Z,1003.87
2016-05-07T04:49:12.488Z,1003.87
2016-05-07T04:50:12.475Z,1003.87
2016-05-07T04:51:12.463Z,1003.87
2016-05-07T04:52:12.449Z,1003.88
2016-05-07T04:53:12.437Z,1003.88
2016-05-07T04:54:12.423Z,1003.88
2016-05-07T04:55:12.410Z,1003.87
2016-05-07T04:56:12.398Z,1003.87
2016-05-07T04:57:12.385Z,1003.88
2016-05-07T04:58:12.371Z,1003.91
2016-05-07T04:59:12.359Z,1003.9
2016-05-07T05:00:12.346Z,1003.89
2016-05-07T05:01:12.334Z,1003.89
2016-05-07T05:02:12.320Z,1003.88
2016-05-07T05:03:12.307Z,1003.9
2016-05-07T05:04:12.294Z,1003.93
2016-05-07T05:05:12.282Z,1003.92
2016-05-07T05:06:12.268Z,1003.92
2016-05-07T05:07:12.255Z,1003.92
2016-05-07T05:08:12.242Z,1003.92
2016-05-07T05:09:12.245Z,1003.92
2016-05-07T05:10:12.233Z,1003.92
2016-05-07T05:11:12.220Z,1003.9
2016-05-07T05:12:12.191Z,1003.92
2016-05-07T05:13:12.194Z,1003.94
2016-05-07T05:14:12.164Z,1003.96
2016-05-07T05:15:12.167Z,1003.94
2016-05-07T05:16:12.155Z,1003.97
2016-05-07T05:17:12.142Z,1003.98
2016-05-07T05:18:12.129Z,1003.97
2016-05-07T05:19:12.116Z,1003.96
2016-05-07T05:20:12.103Z,1003.99
2016-05-07T05:21:12.090Z,1003.96
2016-05-07T05:22:12.078Z,1004.01
2016-05-07T05:23:12.064Z,1004.01
2016-05-07T05:24:12.051Z,1004.01
2016-05-07T05:25:12.038Z,1004.01
2016-05-07T05:26:12.026Z,1004.06
2016-05-07T05:27:12.012Z,1004.07
2016-05-07T05:28:11.999Z,1004.06
2016-05-07T05:29:11.987Z,1004.03
2016-05-07T05:30:11.974Z,1004.07
2016-05-07T05:31:11.960Z,1004.09
2016-05-07T05:32:11.948Z,1004.08
2016-05-07T05:33:11.935Z,1004.11
2016-05-07T05:34:11.922Z,1004.08
2016-05-07T05:35:11.909Z,1004.11
2016-05-07T05:36:11.896Z,1004.08
2016-05-07T05:37:11.898Z,1004.12
2016-05-07T05:38:11.886Z,1004.14
2016-05-07T05:39:11.873Z,1004.12
2016-05-07T05:40:11.859Z,1004.16
2016-05-07T05:41:11.848Z,1004.15
2016-05-07T05:42:11.834Z,1004.1
2016-05-07T05:43:11.821Z,1004.12
2016-05-07T05:44:11.809Z,1004.11
2016-05-07T05:45:11.795Z,1004.1
2016-05-07T05:46:11.783Z,1004.1
2016-05-07T05:47:11.769Z,1004.09
2016-05-07T05:48:11.756Z,1004.09
2016-05-07T05:49:11.744Z,1004.09
2016-05-07T05:50:11.746Z,1004.1
2016-05-07T05:51:11.733Z,1004.12
2016-05-07T05:52:11.721Z,1004.09
2016-05-07T05:53:11.708Z,1004.11
2016-05-07T05:54:11.694Z,1004.14
2016-05-07T05:55:11.682Z,1004.12
2016-05-07T05:56:11.669Z,1004.13
2016-05-07T05:57:11.655Z,1004.14
2016-05-07T05:58:11.643Z,1004.15
2016-05-07T05:59:11.630Z,1004.17
2016-05-07T06:00:11.618Z,1004.2
2016-05-07T06:01:11.604Z,1004.24
2016-05-07T06:02:11.607Z,1004.18
2016-05-07T06:03:11.578Z,1004.2
2016-05-07T06:04:11.581Z,1004.24
2016-05-07T06:05:11.568Z,1004.2
2016-05-07T06:06:11.555Z,1004.18
2016-05-07T06:07:11.542Z,1004.2
2016-05-07T06:08:11.529Z,1004.22
2016-05-07T06:09:11.517Z,1004.19
2016-05-07T06:10:11.520Z,1004.21
2016-05-07T06:11:11.490Z,1004.25
2016-05-07T06:12:11.477Z,1004.25
2016-05-07T06:13:11.480Z,1004.24
2016-05-07T06:14:11.467Z,1004.25
2016-05-07T06:15:11.454Z,1004.28
2016-05-07T06:16:11.442Z,1004.27
2016-05-07T06:17:11.428Z,1004.32
2016-05-07T06:18:11.416Z,1004.31
2016-05-07T06:19:11.403Z,1004.38
2016-05-07T06:20:11.390Z,1004.35
2016-05-07T06:21:11.377Z,1004.37
2016-05-07T06:22:11.380Z,1004.38
2016-05-07T06:23:11.366Z,1004.42
2016-05-07T06:24:12.916Z,1004.4
2016-05-07T06:25:11.341Z,1004.42
2016-05-07T06:26:11.327Z,1004.42
2016-05-07T06:27:11.315Z,1004.39
2016-05-07T06:28:11.318Z,1004.41
2016-05-07T06:29:11.304Z,1004.41
2016-05-07T06:30:11.291Z,1004.41
2016-05-07T06:31:11.278Z,1004.38
2016-05-07T06:32:11.265Z,1004.37
2016-05-07T06:33:11.253Z,1004.37
2016-05-07T06:34:11.443Z,1004.36
2016-05-07T06:35:11.242Z,1004.33
2016-05-07T06:36:11.230Z,1004.34
2016-05-07T06:37:11.217Z,1004.33
2016-05-07T06:38:11.204Z,1004.33
2016-05-07T06:39:11.206Z,1004.3
2016-05-07T06:40:11.193Z,1004.3
2016-05-07T06:41:11.165Z,1004.3
2016-05-07T06:42:11.167Z,1004.3
2016-05-07T06:43:11.154Z,1004.31
2016-05-07T06:44:11.156Z,1004.31
2016-05-07T06:45:11.128Z,1004.31
2016-05-07T06:46:11.131Z,1004.32
2016-05-07T06:47:11.119Z,1004.3
2016-05-07T06:48:11.090Z,1004.36
2016-05-07T06:49:11.092Z,1004.31
2016-05-07T06:50:11.080Z,1004.31
2016-05-07T06:51:11.067Z,1004.3
2016-05-07T06:52:11.053Z,1004.31
2016-05-07T06:53:11.041Z,1004.31
2016-05-07T06:54:11.044Z,1004.33
2016-05-07T06:55:11.030Z,1004.31
2016-05-07T06:56:11.018Z,1004.31
2016-05-07T06:57:11.098Z,1004.32
2016-05-07T06:58:10.992Z,1004.31
2016-05-07T06:59:10.979Z,1004.31
2016-05-07T07:00:10.981Z,1004.33
2016-05-07T07:01:10.968Z,1004.31
2016-05-07T07:02:10.955Z,1004.36
2016-05-07T07:03:10.958Z,1004.37
2016-05-07T07:04:10.946Z,1004.38
2016-05-07T07:05:10.932Z,1004.35
2016-05-07T07:06:10.920Z,1004.4
2016-05-07T07:07:10.922Z,1004.38
2016-05-07T07:08:10.910Z,1004.42
2016-05-07T07:09:10.896Z,1004.45
2016-05-07T07:10:10.883Z,1004.45
2016-05-07T07:11:10.871Z,1004.45
2016-05-07T07:12:10.889Z,1004.45
2016-05-07T07:13:10.860Z,1004.5
2016-05-07T07:14:10.847Z,1004.46
2016-05-07T07:15:10.834Z,1004.47
2016-05-07T07:16:10.821Z,1004.48
2016-05-07T07:17:10.825Z,1004.44
2016-05-07T07:18:10.812Z,1004.47
2016-05-07T07:19:10.798Z,1004.47
2016-05-07T07:20:10.800Z,1004.47
2016-05-07T07:21:10.788Z,1004.46
2016-05-07T07:22:10.775Z,1004.48
2016-05-07T07:23:10.778Z,1004.45
2016-05-07T07:24:10.765Z,1004.47
2016-05-07T07:25:10.752Z,1004.48
2016-05-07T07:26:10.739Z,1004.46
2016-05-07T07:27:10.757Z,1004.44
2016-05-07T07:28:10.729Z,1004.42
2016-05-07T07:29:10.715Z,1004.43
2016-05-07T07:30:10.719Z,1004.42
2016-05-07T07:31:10.706Z,1004.43
2016-05-07T07:32:10.693Z,1004.48
2016-05-07T07:33:10.679Z,1004.43
2016-05-07T07:34:10.682Z,1004.48
2016-05-07T07:35:10.669Z,1004.48
2016-05-07T07:36:10.657Z,1004.46
2016-05-07T07:37:10.660Z,1004.47
2016-05-07T07:38:10.646Z,1004.46
2016-05-07T07:39:10.634Z,1004.45
2016-05-07T07:40:10.636Z,1004.45
2016-05-07T07:41:10.623Z,1004.45
2016-05-07T07:42:10.610Z,1004.45
2016-05-07T07:43:10.613Z,1004.45
2016-05-07T07:44:10.600Z,1004.43
2016-05-07T07:45:10.587Z,1004.45
2016-05-07T07:46:10.589Z,1004.4
2016-05-07T07:47:10.576Z,1004.44
2016-05-07T07:48:10.564Z,1004.43
2016-05-07T07:49:10.567Z,1004.43
2016-05-07T07:50:10.553Z,1004.43
2016-05-07T07:51:10.556Z,1004.43
2016-05-07T07:52:10.543Z,1004.45
2016-05-07T07:53:10.531Z,1004.42
2016-05-07T07:54:10.533Z,1004.41
2016-05-07T07:55:10.520Z,1004.4
2016-05-07T07:56:10.523Z,1004.43
2016-05-07T07:57:10.510Z,1004.4
2016-05-07T07:58:10.497Z,1004.43
2016-05-07T07:59:10.499Z,1004.41
2016-05-07T08:00:10.486Z,1004.4
2016-05-07T08:01:10.489Z,1004.4
2016-05-07T08:02:10.477Z,1004.42
2016-05-07T08:03:10.463Z,1004.43
2016-05-07T08:04:10.466Z,1004.44
2016-05-07T08:05:10.453Z,1004.48
2016-05-07T08:06:10.457Z,1004.49
2016-05-07T08:07:10.443Z,1004.53
2016-05-07T08:08:10.430Z,1004.6
2016-05-07T08:09:10.432Z,1004.56
2016-05-07T08:10:10.420Z,1004.53
2016-05-07T08:11:10.423Z,1004.57
2016-05-07T08:12:10.409Z,1004.6
2016-05-07T08:13:10.412Z,1004.61
2016-05-07T08:14:10.399Z,1004.6
2016-05-07T08:15:10.401Z,1004.61
2016-05-07T08:16:10.390Z,1004.6
2016-05-07T08:17:10.392Z,1004.58
2016-05-07T08:18:10.394Z,1004.57
2016-05-07T08:19:10.397Z,1004.61
2016-05-07T08:20:10.384Z,1004.6
2016-05-07T08:21:10.387Z,1004.64
2016-05-07T08:22:10.390Z,1004.66
2016-05-07T08:23:10.377Z,1004.63
2016-05-07T08:24:10.379Z,1004.63
2016-05-07T08:25:10.382Z,1004.68
2016-05-07T08:26:10.386Z,1004.68
2016-05-07T08:27:10.622Z,1004.64
2016-05-07T08:28:10.390Z,1004.64
2016-05-07T08:29:10.382Z,1004.62
2016-05-07T08:30:10.427Z,1004.65
2016-05-07T08:31:10.474Z,1004.64
2016-05-07T08:32:10.519Z,1004.68
2016-05-07T08:33:10.565Z,1004.71
2016-05-07T08:34:10.794Z,1004.68
2016-05-07T08:35:10.609Z,1004.68
2016-05-07T08:36:10.628Z,1004.67
2016-05-07T08:37:10.646Z,1004.7
2016-05-07T08:38:10.679Z,1004.67
2016-05-07T08:39:10.680Z,1004.69
2016-05-07T08:40:10.689Z,1004.71
2016-05-07T08:41:10.697Z,1004.7
2016-05-07T08:42:10.706Z,1004.72
2016-05-07T08:43:10.714Z,1004.69
2016-05-07T08:44:10.722Z,1004.72
2016-05-07T08:45:10.727Z,1004.71
2016-05-07T08:46:10.732Z,1004.75
2016-05-07T08:47:10.736Z,1004.74
2016-05-07T08:48:10.740Z,1004.73
2016-05-07T08:49:10.746Z,1004.73
2016-05-07T08:50:10.749Z,1004.73
2016-05-07T08:51:10.752Z,1004.74
2016-05-07T08:52:10.756Z,1004.73
2016-05-07T08:53:10.759Z,1004.73
2016-05-07T08:54:10.762Z,1004.75
2016-05-07T08:55:10.781Z,1004.76
2016-05-07T08:56:10.769Z,1004.8
2016-05-07T08:57:10.788Z,1004.75
2016-05-07T08:58:10.791Z,1004.75
2016-05-07T08:59:10.794Z,1004.74
2016-05-07T09:00:10.780Z,1004.67
2016-05-07T09:01:10.799Z,1004.68
2016-05-07T09:02:10.786Z,1004.68
2016-05-07T09:03:10.788Z,1004.68
2016-05-07T09:04:10.792Z,1004.7
2016-05-07T09:05:10.794Z,1004.74
2016-05-07T09:06:10.813Z,1004.74
2016-05-07T09:07:10.815Z,1004.71
2016-05-07T09:08:10.802Z,1004.74
2016-05-07T09:09:10.805Z,1004.75
2016-05-07T09:10:10.808Z,1004.77
2016-05-07T09:11:10.810Z,1004.73
2016-05-07T09:12:10.813Z,1004.73
2016-05-07T09:13:10.815Z,1004.7
2016-05-07T09:14:10.819Z,1004.71
2016-05-07T09:15:10.821Z,1004.8
2016-05-07T09:16:10.824Z,1004.73
2016-05-07T09:17:10.826Z,1004.72
2016-05-07T09:18:10.829Z,1004.79
2016-05-07T09:19:10.832Z,1004.75
2016-05-07T09:20:10.820Z,1004.84
2016-05-07T09:21:10.822Z,1004.85
2016-05-07T09:22:10.824Z,1004.71
2016-05-07T09:23:10.828Z,1004.63
2016-05-07T09:24:10.830Z,1004.65
2016-05-07T09:25:10.833Z,1004.65
2016-05-07T09:26:10.836Z,1004.6
2016-05-07T09:27:10.838Z,1004.54
2016-05-07T09:28:10.841Z,1004.57
2016-05-07T09:29:10.844Z,1004.65
2016-05-07T09:30:10.846Z,1004.75
2016-05-07T09:31:10.833Z,1004.73
2016-05-07T09:32:10.835Z,1004.6
2016-05-07T09:33:10.838Z,1004.54
2016-05-07T09:34:10.841Z,1004.47
2016-05-07T09:35:10.844Z,1004.45
2016-05-07T09:36:10.847Z,1004.52
2016-05-07T09:37:10.849Z,1004.6
2016-05-07T09:38:10.852Z,1004.54
2016-05-07T09:39:10.854Z,1004.42
2016-05-07T09:40:10.857Z,1004.43
2016-05-07T09:41:10.844Z,1004.38
2016-05-07T09:42:10.847Z,1004.4
2016-05-07T09:43:10.849Z,1004.38
2016-05-07T09:44:10.852Z,1004.37
2016-05-07T09:45:10.855Z,1004.37
2016-05-07T09:46:10.858Z,1004.37
2016-05-07T09:47:10.876Z,1004.4
2016-05-07T09:48:10.863Z,1004.55
2016-05-07T09:49:10.850Z,1004.48
2016-05-07T09:50:10.853Z,1004.48
2016-05-07T09:51:10.856Z,1004.52
2016-05-07T09:52:10.859Z,1004.32
2016-05-07T09:53:10.861Z,1004.3
2016-05-07T09:54:10.864Z,1004.27
2016-05-07T09:55:10.866Z,1004.28
2016-05-07T09:56:10.854Z,1004.23
2016-05-07T09:57:10.934Z,1004.24
2016-05-07T09:58:10.859Z,1004.28
2016-05-07T09:59:10.861Z,1004.3
2016-05-07T10:00:10.864Z,1004.36
2016-05-07T10:01:10.852Z,1004.3
2016-05-07T10:02:10.855Z,1004.22
2016-05-07T10:03:10.857Z,1004.18
2016-05-07T10:04:10.860Z,1004.15
2016-05-07T10:05:10.863Z,1004.12
2016-05-07T10:06:10.865Z,1004.12
2016-05-07T10:07:10.868Z,1004.14
2016-05-07T10:08:10.871Z,1004.21
2016-05-07T10:09:10.873Z,1004.2
2016-05-07T10:10:10.860Z,1004.28
2016-05-07T10:11:10.863Z,1004.32
2016-05-07T10:12:10.943Z,1004.26
2016-05-07T10:13:10.868Z,1004.26
2016-05-07T10:14:10.871Z,1004.26
2016-05-07T10:15:10.873Z,1004.29
2016-05-07T10:16:10.876Z,1004.25
2016-05-07T10:17:10.879Z,1004.28
2016-05-07T10:18:10.882Z,1004.28
2016-05-07T10:19:10.884Z,1004.23
2016-05-07T10:20:10.887Z,1004.31
2016-05-07T10:21:10.890Z,1004.31
2016-05-07T10:22:10.892Z,1004.28
2016-05-07T10:23:10.894Z,1004.31
2016-05-07T10:24:10.897Z,1004.36
2016-05-07T10:25:10.901Z,1004.27
2016-05-07T10:26:10.903Z,1004.32
2016-05-07T10:27:10.905Z,1004.31
2016-05-07T10:28:10.920Z,1004.36
2016-05-07T10:29:10.922Z,1004.37
2016-05-07T10:30:10.924Z,1004.29
2016-05-07T10:31:10.928Z,1004.27
2016-05-07T10:32:10.945Z,1004.26
2016-05-07T10:33:10.933Z,1004.22
2016-05-07T10:34:11.138Z,1004.23
2016-05-07T10:35:10.954Z,1004.27
2016-05-07T10:36:10.956Z,1004.22
2016-05-07T10:37:10.958Z,1004.24
2016-05-07T10:38:10.962Z,1004.21
2016-05-07T10:39:10.964Z,1004.22
2016-05-07T10:40:10.966Z,1004.25
2016-05-07T10:41:10.985Z,1004.22
2016-05-07T10:42:10.988Z,1004.23
2016-05-07T10:43:10.991Z,1004.22
2016-05-07T10:44:10.993Z,1004.19
2016-05-07T10:45:10.996Z,1004.19
2016-05-07T10:46:10.999Z,1004.16
2016-05-07T10:47:11.017Z,1004.11
2016-05-07T10:48:11.020Z,1004.13
2016-05-07T10:49:11.023Z,1004.15
2016-05-07T10:50:11.026Z,1004.07
2016-05-07T10:51:11.028Z,1004.05
2016-05-07T10:52:11.046Z,1004.04
2016-05-07T10:53:11.049Z,1004.05
2016-05-07T10:54:11.051Z,1004.08
2016-05-07T10:55:11.070Z,1004.06
2016-05-07T10:56:11.056Z,1004.04
2016-05-07T10:57:11.076Z,1004.09
2016-05-07T10:58:11.078Z,1004.06
2016-05-07T10:59:11.080Z,1004.06
2016-05-07T11:00:11.084Z,1004.05
2016-05-07T11:01:11.086Z,1004.01
2016-05-07T11:02:11.088Z,1004.01
2016-05-07T11:03:11.106Z,1003.99
2016-05-07T11:04:11.110Z,1003.99
2016-05-07T11:05:11.112Z,1004.01
2016-05-07T11:06:11.114Z,1004
2016-05-07T11:07:11.134Z,1003.91
2016-05-07T11:08:11.136Z,1003.94
2016-05-07T11:09:11.138Z,1003.94
2016-05-07T11:10:11.141Z,1003.93
2016-05-07T11:11:11.144Z,1003.94
2016-05-07T11:12:11.163Z,1003.94
2016-05-07T11:13:11.165Z,1004
2016-05-07T11:14:11.183Z,1003.95
2016-05-07T11:15:11.171Z,1003.94
2016-05-07T11:16:11.188Z,1003.87
2016-05-07T11:17:11.191Z,1003.9
2016-05-07T11:18:11.194Z,1003.88
2016-05-07T11:19:11.197Z,1003.95
2016-05-07T11:20:11.199Z,1003.88
2016-05-07T11:21:11.218Z,1003.89
2016-05-07T11:22:11.220Z,1003.86
2016-05-07T11:23:11.223Z,1003.87
2016-05-07T11:24:11.242Z,1003.89
2016-05-07T11:25:11.245Z,1003.86
2016-05-07T11:26:11.247Z,1003.8
2016-05-07T11:27:11.250Z,1003.77
2016-05-07T11:28:11.268Z,1003.75
2016-05-07T11:29:11.270Z,1003.82
2016-05-07T11:30:11.273Z,1003.85
2016-05-07T11:31:11.292Z,1003.79
2016-05-07T11:32:11.278Z,1003.74
2016-05-07T11:33:11.298Z,1003.78
2016-05-07T11:34:11.300Z,1003.84
2016-05-07T11:35:11.303Z,1003.84
2016-05-07T11:36:11.305Z,1003.82
2016-05-07T11:37:11.307Z,1003.83
2016-05-07T11:38:11.326Z,1003.79
2016-05-07T11:39:11.328Z,1003.74
2016-05-07T11:40:11.331Z,1003.72
2016-05-07T11:41:11.365Z,1003.66
2016-05-07T11:42:11.541Z,1003.75
2016-05-07T11:43:11.355Z,1003.77
2016-05-07T11:44:11.357Z,1003.76
2016-05-07T11:45:11.361Z,1003.74
2016-05-07T11:46:11.379Z,1003.69
2016-05-07T11:47:11.382Z,1003.76
2016-05-07T11:48:11.384Z,1003.75
2016-05-07T11:49:11.387Z,1003.67
2016-05-07T11:50:11.405Z,1003.65
2016-05-07T11:51:11.408Z,1003.65
2016-05-07T11:52:11.410Z,1003.62
2016-05-07T11:53:11.413Z,1003.61
2016-05-07T11:54:11.416Z,1003.61
2016-05-07T11:55:11.434Z,1003.6
2016-05-07T11:56:11.437Z,1003.7
2016-05-07T11:57:11.861Z,1003.66
2016-05-07T11:58:11.443Z,1003.67
2016-05-07T11:59:11.445Z,1003.69
2016-05-07T12:00:11.464Z,1003.64
2016-05-07T12:01:11.466Z,1003.68
2016-05-07T12:02:11.484Z,1003.67
2016-05-07T12:03:11.487Z,1003.61
2016-05-07T12:04:11.489Z,1003.62
2016-05-07T12:05:11.492Z,1003.62
2016-05-07T12:06:11.511Z,1003.59
2016-05-07T12:07:11.514Z,1003.59
2016-05-07T12:08:11.516Z,1003.63